.
WxDataArchive / Data Records for 2012-09-09
2012-09-08 September 2012 2012-09-10

Data Records for Sunday, 09 September 2012

Time	Temp	Chill	HIndex	Humid	Dewpt	 Wind 	HiWind	WindDir	Rain 	Barom 
-----	----	-----	------	-----	-----	------	------	-------	-----	----- 
00:00	53.9	53.9	53.9	87	50.1	0	0	---	0.00	29.873 
00:05	53.8	53.8	53.8	88	50.3	0	0	---	0.00	29.873 
00:10	53.6	53.6	53.6	88	50.1	0	0	---	0.00	29.873 
00:15	53.5	53.5	53.5	88	50.0	0	0	---	0.00	29.867 
00:20	53.3	53.3	53.3	88	49.8	0	0	---	0.00	29.867 
00:25	53.3	53.3	53.3	88	49.8	0	0	---	0.00	29.867 
00:30	53.3	53.3	53.3	88	49.8	0	0	---	0.00	29.866 
00:35	53.3	53.3	53.3	88	49.8	0	0	---	0.00	29.866 
00:40	53.3	53.3	53.3	89	50.1	0	0	---	0.00	29.866 
00:45	53.5	53.5	53.5	89	50.3	0	0	---	0.00	29.868 
00:50	53.6	53.6	53.6	90	50.7	0	0	---	0.00	29.868 
00:55	53.9	53.9	53.9	90	51.0	0	0	---	0.00	29.868 
01:00	54.1	54.1	54.1	90	51.2	0	0	---	0.00	29.863 
01:05	54.2	54.2	54.2	90	51.3	0	0	---	0.00	29.863 
01:10	54.2	54.2	54.2	90	51.3	0	0	---	0.00	29.863 
01:15	54.2	54.2	54.2	90	51.3	0	0	---	0.00	29.865 
01:20	54.2	54.2	54.2	90	51.3	0	0	---	0.00	29.865 
01:25	54.1	54.1	54.1	90	51.2	0	0	---	0.00	29.865 
01:30	54.1	54.1	54.1	90	51.2	0	0	---	0.00	29.861 
01:35	54.1	54.1	54.1	90	51.2	0	0	---	0.00	29.861 
01:40	54.1	54.1	54.1	90	51.2	0	0	---	0.00	29.861 
01:45	54.1	54.1	54.1	90	51.2	0	0	---	0.00	29.860 
01:50	54.2	54.2	54.2	90	51.3	0	0	---	0.00	29.860 
01:55	54.4	54.4	54.4	90	51.5	0	1	315	0.00	29.860 
02:00	54.7	54.7	54.7	90	51.8	0	0	---	0.00	29.865 
02:05	54.8	54.8	54.8	90	51.9	0	0	---	0.00	29.865 
02:10	55.1	55.1	55.1	90	52.2	0	0	---	0.00	29.865 
02:15	55.3	55.3	55.3	89	52.1	0	0	---	0.00	29.863 
02:20	55.4	55.4	55.4	89	52.2	0	1	315	0.00	29.863 
02:25	55.7	55.7	55.7	88	52.2	0	0	---	0.00	29.863 
02:30	55.9	55.9	55.9	88	52.4	0	0	---	0.00	29.858 
02:35	56.2	56.2	56.2	87	52.4	0	0	---	0.00	29.858 
02:40	56.5	56.5	56.5	86	52.4	0	0	---	0.00	29.858 
02:45	56.6	56.6	56.6	84	51.8	0	0	---	0.00	29.854 
02:50	56.7	56.7	56.7	84	51.9	0	0	---	0.00	29.854 
02:55	56.9	56.9	56.9	83	51.8	0	0	---	0.00	29.854 
03:00	57.0	57.0	57.0	83	51.9	0	0	---	0.00	29.853 
03:05	57.0	57.0	57.0	82	51.6	0	0	---	0.00	29.853 
03:10	57.2	57.2	57.2	82	51.8	0	0	---	0.00	29.853 
03:15	57.2	57.2	57.2	82	51.8	0	0	---	0.00	29.850 
03:20	57.2	57.2	57.2	82	51.8	0	0	---	0.00	29.850 
03:25	57.3	57.3	57.3	82	51.9	0	1	315	0.00	29.850 
03:30	57.5	57.5	57.5	82	52.0	0	1	315	0.00	29.862 
03:35	57.6	57.6	57.6	82	52.1	0	1	315	0.00	29.862 
03:40	58.0	58.0	58.0	81	52.2	1	3	315	0.00	29.862 
03:45	58.0	58.0	58.0	81	52.2	1	5	315	0.01	29.869 
03:50	57.6	57.6	57.6	83	52.5	0	2	315	0.00	29.869 
03:55	57.3	57.3	57.3	84	52.5	0	1	315	0.00	29.869 
04:00	57.0	57.0	57.0	85	52.5	0	2	315	0.00	29.865 
04:05	56.9	56.9	56.9	86	52.8	0	1	315	0.00	29.865 
04:10	56.7	56.7	56.7	86	52.6	0	1	315	0.01	29.865 
04:15	56.7	56.7	56.7	87	52.9	0	2	315	0.00	29.865 
04:20	56.6	56.6	56.6	88	53.1	0	1	315	0.00	29.865 
04:25	56.6	56.6	56.6	88	53.1	0	1	315	0.00	29.865 
04:30	56.5	56.5	56.5	88	53.0	0	1	315	0.00	29.863 
04:35	56.5	56.5	56.5	89	53.3	0	1	315	0.00	29.863 
04:40	56.3	56.3	56.3	89	53.1	0	1	315	0.00	29.863 
04:45	56.3	56.3	56.3	89	53.1	0	1	315	0.00	29.860 
04:50	56.3	56.3	56.3	90	53.4	0	0	---	0.00	29.860 
04:55	56.3	56.3	56.3	90	53.4	0	0	---	0.00	29.860 
05:00	56.2	56.2	56.2	90	53.3	0	0	---	0.00	29.858 
05:05	56.2	56.2	56.2	90	53.3	0	0	---	0.00	29.858 
05:10	56.2	56.2	56.2	91	53.6	0	0	---	0.00	29.858 
05:15	56.2	56.2	56.2	91	53.6	0	0	---	0.00	29.861 
05:20	56.0	56.0	56.0	91	53.4	0	0	---	0.00	29.861 
05:25	56.0	56.0	56.0	91	53.4	0	0	---	0.00	29.861 
05:30	56.0	56.0	56.0	91	53.4	0	0	---	0.00	29.867 
05:35	56.0	56.0	56.0	92	53.7	0	0	---	0.00	29.867 
05:40	55.9	55.9	55.9	92	53.6	0	0	---	0.00	29.867 
05:45	55.7	55.7	55.7	92	53.4	0	0	---	0.00	29.863 
05:50	55.4	55.4	55.4	92	53.1	0	0	---	0.00	29.863 
05:55	55.3	55.3	55.3	92	53.0	0	0	---	0.00	29.863 
06:00	55.1	55.1	55.1	92	52.8	0	0	---	0.00	29.864 
06:05	55.0	55.0	55.0	92	52.7	0	0	---	0.00	29.864 
06:10	54.8	54.8	54.8	92	52.5	0	0	---	0.00	29.864 
06:15	54.7	54.7	54.7	92	52.4	0	0	---	0.00	29.872 
06:20	54.7	54.7	54.7	92	52.4	0	0	---	0.00	29.872 
06:25	54.5	54.5	54.5	92	52.2	0	0	---	0.00	29.872 
06:30	54.5	54.5	54.5	92	52.2	0	0	---	0.00	29.880 
06:35	54.5	54.5	54.5	93	52.5	0	0	---	0.00	29.880 
06:40	54.4	54.4	54.4	93	52.4	0	0	---	0.00	29.880 
06:45	54.4	54.4	54.4	93	52.4	0	0	---	0.00	29.890 
06:50	54.1	54.1	54.1	93	52.1	0	0	---	0.00	29.890 
06:55	53.9	53.9	53.9	93	51.9	0	0	---	0.00	29.890 
07:00	53.9	53.9	53.9	93	51.9	0	0	---	0.00	29.892 
07:05	53.9	53.9	53.9	93	51.9	0	0	---	0.00	29.892 
07:10	53.8	53.8	53.8	93	51.8	0	0	---	0.00	29.892 
07:15	53.8	53.8	53.8	94	52.1	0	0	---	0.00	29.895 
07:20	53.8	53.8	53.8	94	52.1	0	0	---	0.00	29.895 
07:25	53.8	53.8	53.8	94	52.1	0	0	---	0.00	29.895 
07:30	53.8	53.8	53.8	94	52.1	0	0	---	0.00	29.897 
07:35	53.8	53.8	53.8	94	52.1	0	0	---	0.00	29.897 
07:40	53.8	53.8	53.8	94	52.1	0	0	---	0.00	29.897 
07:45	53.6	53.6	53.6	94	51.9	0	0	---	0.00	29.907 
07:50	53.6	53.6	53.6	94	51.9	0	0	---	0.00	29.907 
07:55	53.6	53.6	53.6	94	51.9	0	0	---	0.00	29.907 
08:00	53.5	53.5	53.5	94	51.8	0	0	---	0.00	29.910 
08:05	53.6	53.6	53.6	94	51.9	0	0	---	0.00	29.910 
08:10	53.9	53.9	53.9	95	52.5	0	0	---	0.00	29.910 
08:15	54.1	54.1	54.1	95	52.7	0	0	---	0.00	29.916 
08:20	54.4	54.4	54.4	95	53.0	0	0	---	0.00	29.916 
08:25	54.7	54.7	54.7	95	53.3	0	0	---	0.00	29.916 
08:30	55.1	55.1	55.1	95	53.7	0	0	---	0.00	29.924 
08:35	55.6	55.6	55.6	95	54.2	0	0	---	0.00	29.924 
08:40	56.0	56.0	56.0	95	54.6	0	0	---	0.00	29.924 
08:45	56.3	56.3	56.3	95	54.9	0	0	---	0.00	29.932 
08:50	56.5	56.5	56.5	95	55.1	0	0	---	0.00	29.932 
08:55	56.7	56.7	56.7	95	55.3	0	0	---	0.00	29.932 
09:00	56.9	56.9	56.9	95	55.5	0	1	315	0.00	29.933 
09:05	57.2	57.2	57.2	95	55.8	0	1	315	0.00	29.933 
09:10	57.3	57.3	57.3	95	55.9	0	0	---	0.00	29.933 
09:15	57.3	57.3	57.3	95	55.9	0	1	315	0.00	29.938 
09:20	57.5	57.5	57.5	94	55.8	0	1	315	0.00	29.938 
09:25	57.6	57.6	57.6	94	55.9	0	0	---	0.00	29.938 
09:30	57.8	57.8	57.8	93	55.8	0	1	315	0.00	29.936 
09:35	58.0	58.0	58.0	93	56.0	0	1	315	0.00	29.936 
09:40	58.3	58.3	58.3	92	56.0	0	1	315	0.00	29.936 
09:45	58.4	58.4	58.4	91	55.8	0	2	315	0.00	29.943 
09:50	58.7	58.7	58.7	90	55.8	0	1	315	0.00	29.943 
09:55	59.0	59.0	59.0	89	55.8	0	1	315	0.00	29.943 
10:00	59.3	59.3	59.3	88	55.7	0	1	315	0.00	29.949 
10:05	59.5	59.5	59.5	87	55.6	0	3	315	0.00	29.949 
10:10	59.9	59.9	59.9	86	55.7	0	2	315	0.00	29.949 
10:15	60.4	60.4	60.4	85	55.9	1	2	315	0.00	29.957 
10:20	60.9	60.9	60.9	84	56.0	1	3	315	0.00	29.957 
10:25	61.5	61.5	61.5	83	56.3	1	2	315	0.00	29.957 
10:30	62.1	62.1	62.1	82	56.5	0	1	315	0.00	29.959 
10:35	62.3	62.3	62.3	80	56.0	1	3	315	0.00	29.959 
10:40	62.6	62.6	62.6	81	56.7	0	2	315	0.00	29.959 
10:45	63.1	63.1	63.1	78	56.1	1	3	315	0.00	29.959 
10:50	62.9	62.9	62.9	76	55.2	2	3	315	0.00	29.959 
10:55	63.2	63.2	63.2	77	55.9	1	4	292	0.00	29.959 
11:00	63.4	63.4	63.4	75	55.3	1	3	292	0.00	29.969 
11:05	63.9	63.9	63.9	73	55.1	1	3	292	0.00	29.969 
11:10	64.5	64.5	64.5	70	54.5	1	5	270	0.00	29.969 
11:15	64.5	64.5	64.5	67	53.3	1	4	90	0.00	29.973 
11:20	64.7	64.7	64.7	69	54.3	1	4	292	0.00	29.973 
11:25	65.2	65.2	65.2	73	56.3	0	2	292	0.00	29.973 
11:30	65.6	65.6	65.6	69	55.1	1	2	292	0.00	29.972 
11:35	65.0	65.0	65.0	66	53.4	2	5	292	0.00	29.972 
11:40	64.8	64.8	64.8	70	54.8	0	2	90	0.00	29.972 
11:45	64.8	64.8	64.8	69	54.4	1	3	90	0.00	29.974 
11:50	65.5	65.5	65.5	69	55.1	1	4	90	0.00	29.974 
11:55	65.6	65.6	65.6	66	53.9	1	5	315	0.00	29.974 
12:00	66.1	66.1	66.1	67	54.8	1	4	135	0.00	29.974 
12:05	66.1	66.1	66.1	66	54.4	1	4	90	0.00	29.974 
12:10	65.5	65.5	65.5	66	53.8	1	5	270	0.00	29.974 
12:15	64.8	64.8	64.8	67	53.6	1	4	270	0.00	29.977 
12:20	65.0	65.0	65.0	70	55.0	1	4	292	0.00	29.977 
12:25	65.5	65.5	65.5	65	53.4	1	4	292	0.00	29.977 
12:30	65.6	65.6	65.6	67	54.3	1	4	315	0.00	29.982 
12:35	65.5	65.5	65.5	67	54.2	0	4	292	0.00	29.982 
12:40	64.8	64.8	64.8	67	53.6	1	4	315	0.00	29.982 
12:45	65.3	65.3	65.3	66	53.6	1	3	315	0.00	29.986 
12:50	66.0	66.0	66.0	65	53.9	1	4	270	0.00	29.986 
12:55	66.6	66.6	66.6	66	54.9	0	3	90	0.00	29.986 
13:00	67.4	67.4	67.4	64	54.8	2	4	90	0.00	29.986 
13:05	67.9	67.9	67.9	62	54.4	2	7	90	0.00	29.986 
13:10	67.6	67.6	67.6	66	55.8	1	7	90	0.00	29.986 
13:15	67.4	67.4	67.4	62	53.9	1	5	292	0.00	29.985 
13:20	67.8	67.8	67.8	63	54.7	1	3	112	0.00	29.985 
13:25	68.1	68.1	68.1	63	55.0	1	3	292	0.00	29.985 
13:30	68.3	68.3	68.3	61	54.3	1	3	292	0.00	29.987 
13:35	68.6	68.6	68.6	59	53.7	0	5	292	0.00	29.987 
13:40	68.6	68.6	68.6	57	52.7	1	4	270	0.00	29.987 
13:45	68.9	68.9	68.9	57	53.0	1	3	90	0.00	29.985 
13:50	69.1	69.1	69.1	55	52.2	1	2	90	0.00	29.985 
13:55	69.4	69.4	69.4	60	54.9	1	4	90	0.00	29.985 
14:00	69.4	69.4	69.4	55	52.5	1	3	90	0.00	29.984 
14:05	69.6	69.6	69.6	57	53.7	0	2	90	0.00	29.984 
14:10	69.9	69.9	69.9	57	54.0	1	3	90	0.00	29.984 
14:15	69.9	69.9	69.9	55	53.0	1	5	90	0.00	29.982 
14:20	69.9	69.9	69.9	57	54.0	1	3	90	0.00	29.982 
14:25	70.3	70.3	70.3	56	53.8	0	2	68	0.00	29.982 
14:30	70.6	70.6	70.6	51	51.6	1	3	135	0.00	29.983 
14:35	70.9	70.9	70.9	51	51.9	0	2	135	0.00	29.983 
14:40	70.9	70.9	70.9	51	51.9	1	5	135	0.00	29.983 
14:45	70.6	70.6	70.6	50	51.0	1	3	90	0.00	29.983 
14:50	69.9	69.9	69.9	53	52.0	0	3	90	0.00	29.983 
14:55	69.8	69.8	69.8	53	51.9	0	2	90	0.00	29.983 
15:00	69.6	69.6	69.6	54	52.2	0	2	90	0.00	29.984 
15:05	70.3	70.3	70.3	56	53.8	1	2	90	0.00	29.984 
15:10	70.9	70.9	70.9	51	51.9	1	4	270	0.00	29.984 
15:15	71.5	71.5	71.5	49	51.3	1	5	270	0.00	29.981 
15:20	71.5	71.5	71.5	48	50.8	2	4	270	0.00	29.981 
15:25	71.6	71.6	71.6	48	50.9	1	3	292	0.00	29.981 
15:30	71.5	71.5	71.5	50	51.9	1	5	292	0.00	29.982 
15:35	70.8	70.8	70.8	49	50.7	0	1	112	0.00	29.982 
15:40	70.4	70.4	70.4	53	52.4	0	1	112	0.00	29.982 
15:45	70.4	70.4	70.4	54	52.9	0	1	112	0.00	29.982 
15:50	70.9	70.9	70.9	52	52.4	0	3	112	0.00	29.982 
15:55	70.6	70.6	70.6	51	51.6	0	1	112	0.00	29.982 
16:00	69.9	69.9	69.9	50	50.4	0	1	112	0.00	29.986 
16:05	69.4	69.4	69.4	52	51.0	0	2	112	0.00	29.986 
16:10	69.8	69.8	69.8	56	53.4	1	4	112	0.00	29.986 
16:15	70.3	70.3	70.3	53	52.3	0	2	112	0.00	29.988 
16:20	70.6	70.6	70.6	53	52.6	1	3	112	0.00	29.988 
16:25	70.9	70.9	70.9	52	52.4	1	4	112	0.00	29.988 
16:30	71.1	71.1	71.1	50	51.5	1	4	135	0.00	29.988 
16:35	71.1	71.1	71.1	50	51.5	0	3	68	0.00	29.988 
16:40	70.8	70.8	70.8	48	50.1	1	3	68	0.00	29.988 
16:45	70.3	70.3	70.3	51	51.3	0	1	68	0.00	29.989 
16:50	70.1	70.1	70.1	51	51.1	1	2	22	0.00	29.989 
16:55	70.4	70.4	70.4	52	51.9	1	4	22	0.00	29.989 
17:00	70.6	70.6	70.6	50	51.0	0	2	45	0.00	29.995 
17:05	70.4	70.4	70.4	51	51.4	0	2	45	0.00	29.995 
17:10	69.9	69.9	69.9	52	51.5	0	2	45	0.00	29.995 
17:15	69.6	69.6	69.6	54	52.2	0	2	45	0.00	29.997 
17:20	69.4	69.4	69.4	53	51.5	0	2	45	0.00	29.997 
17:25	69.4	69.4	69.4	53	51.5	0	3	45	0.00	29.997 
17:30	69.4	69.4	69.4	52	51.0	0	1	45	0.00	29.998 
17:35	69.1	69.1	69.1	55	52.2	0	1	45	0.00	29.998 
17:40	68.9	68.9	68.9	56	52.5	0	0	---	0.00	29.998 
17:45	68.4	68.4	68.4	56	52.1	0	0	---	0.00	30.000 
17:50	68.3	68.3	68.3	56	52.0	0	2	45	0.00	30.000 
17:55	68.1	68.1	68.1	56	51.8	0	0	---	0.00	30.000 
18:00	67.9	67.9	67.9	56	51.6	0	1	45	0.00	30.006 
18:05	68.1	68.1	68.1	56	51.8	0	0	---	0.00	30.006 
18:10	68.4	68.4	68.4	55	51.6	0	0	---	0.00	30.006 
18:15	68.6	68.6	68.6	57	52.7	0	1	45	0.00	30.013 
18:20	69.1	69.1	69.1	55	52.2	0	1	45	0.00	30.013 
18:25	69.6	69.6	69.6	52	51.2	0	2	315	0.00	30.013 
18:30	69.8	69.8	69.8	48	49.2	1	4	315	0.00	30.013 
18:35	69.9	69.9	69.9	49	49.9	0	2	292	0.00	30.013 
18:40	70.3	70.3	70.3	48	49.7	1	3	292	0.00	30.013 
18:45	70.4	70.4	70.4	49	50.3	0	2	292	0.00	30.017 
18:50	70.4	70.4	70.4	47	49.2	0	2	292	0.00	30.017 
18:55	70.3	70.3	70.3	50	50.8	0	1	292	0.00	30.017 
19:00	69.8	69.8	69.8	51	50.8	0	1	292	0.00	30.019 
19:05	69.4	69.4	69.4	51	50.5	0	1	292	0.00	30.019 
19:10	69.3	69.3	69.3	53	51.4	0	0	---	0.00	30.019 
19:15	69.1	69.1	69.1	54	51.7	0	0	---	0.00	30.022 
19:20	69.1	69.1	69.1	55	52.2	0	1	292	0.00	30.022 
19:25	69.1	69.1	69.1	54	51.7	0	2	292	0.00	30.022 
19:30	68.9	68.9	68.9	54	51.6	0	2	292	0.00	30.025 
19:35	68.9	68.9	68.9	54	51.6	0	1	292	0.00	30.025 
19:40	68.6	68.6	68.6	54	51.3	0	1	292	0.00	30.025 
19:45	68.4	68.4	68.4	54	51.1	0	0	---	0.00	30.028 
19:50	68.3	68.3	68.3	57	52.5	0	1	292	0.00	30.028 
19:55	67.9	67.9	67.9	58	52.6	0	0	---	0.00	30.028 
20:00	67.6	67.6	67.6	58	52.3	0	0	---	0.00	30.030 
20:05	67.3	67.3	67.3	58	52.0	0	0	---	0.00	30.030 
20:10	66.9	66.9	66.9	59	52.1	0	0	---	0.00	30.030 
20:15	66.8	66.8	66.8	60	52.5	0	0	---	0.00	30.031 
20:20	66.4	66.4	66.4	60	52.1	0	0	---	0.00	30.031 
20:25	66.3	66.3	66.3	60	52.0	0	0	---	0.00	30.031 
20:30	66.0	66.0	66.0	61	52.2	0	0	---	0.00	30.034 
20:35	65.8	65.8	65.8	61	52.0	0	0	---	0.00	30.034 
20:40	65.3	65.3	65.3	62	51.9	0	0	---	0.00	30.034 
20:45	65.0	65.0	65.0	63	52.1	0	0	---	0.00	30.044 
20:50	64.7	64.7	64.7	64	52.2	0	0	---	0.00	30.044 
20:55	64.3	64.3	64.3	65	52.3	0	0	---	0.00	30.044 
21:00	63.9	63.9	63.9	66	52.3	0	0	---	0.00	30.050 
21:05	63.5	63.5	63.5	67	52.3	0	0	---	0.00	30.050 
21:10	63.2	63.2	63.2	68	52.5	0	0	---	0.00	30.050 
21:15	62.9	62.9	62.9	69	52.6	0	0	---	0.00	30.054 
21:20	62.6	62.6	62.6	70	52.7	0	0	---	0.00	30.054 
21:25	62.3	62.3	62.3	69	52.0	0	0	---	0.00	30.054 
21:30	62.1	62.1	62.1	69	51.8	0	0	---	0.00	30.064 
21:35	62.1	62.1	62.1	68	51.4	0	0	---	0.00	30.064 
21:40	62.3	62.3	62.3	67	51.2	0	0	---	0.00	30.064 
21:45	62.4	62.4	62.4	67	51.3	0	0	---	0.00	30.068 
21:50	62.4	62.4	62.4	67	51.3	0	0	---	0.00	30.068 
21:55	62.3	62.3	62.3	68	51.6	0	0	---	0.00	30.068 
22:00	62.3	62.3	62.3	68	51.6	0	1	292	0.00	30.069 
22:05	62.1	62.1	62.1	68	51.4	0	1	292	0.00	30.069 
22:10	62.1	62.1	62.1	68	51.4	0	1	292	0.00	30.069 
22:15	62.0	62.0	62.0	68	51.3	0	1	292	0.00	30.069 
22:20	62.0	62.0	62.0	68	51.3	0	0	---	0.00	30.069 
22:25	61.8	61.8	61.8	68	51.1	0	1	292	0.00	30.069 
22:30	61.5	61.5	61.5	69	51.2	0	1	292	0.00	30.069 
22:35	61.3	61.3	61.3	69	51.0	0	1	292	0.00	30.069 
22:40	61.2	61.2	61.2	69	50.9	0	0	---	0.00	30.069 
22:45	61.0	61.0	61.0	69	50.8	0	1	292	0.00	30.073 
22:50	60.9	60.9	60.9	70	51.0	0	0	---	0.00	30.073 
22:55	60.7	60.7	60.7	70	50.9	0	0	---	0.00	30.073 
23:00	60.5	60.5	60.5	71	51.0	0	0	---	0.00	30.079 
23:05	60.2	60.2	60.2	72	51.1	0	0	---	0.00	30.079 
23:10	60.1	60.1	60.1	72	51.0	0	0	---	0.00	30.079 
23:15	59.9	59.9	59.9	73	51.2	0	0	---	0.00	30.081 
23:20	59.8	59.8	59.8	73	51.1	0	0	---	0.00	30.081 
23:25	59.6	59.6	59.6	73	50.9	0	1	292	0.00	30.081 
23:30	59.6	59.6	59.6	73	50.9	0	0	---	0.00	30.086 
23:35	59.5	59.5	59.5	73	50.8	0	0	---	0.00	30.086 
23:40	59.3	59.3	59.3	73	50.6	0	0	---	0.00	30.086 
23:45	59.2	59.2	59.2	73	50.5	0	1	292	0.00	30.091 
23:50	59.2	59.2	59.2	73	50.5	0	0	---	0.00	30.091 
23:55	59.0	59.0	59.0	73	50.4	0	1	292	0.00	30.091 

CoCoRaHS
IN-AL-39
A2 Web Hosting
Creative Commons License
GoDaddy
search engine by freefind advanced

loaded 2018-11-12 15:38:37 • last modified 2010-11-18 10:43:29
Privacy PolicyDisclaimer
• wx.awcolley.com is powered by PmWiki v.2002016 •
• all content (unless otherwise noted) © 2018 A W Colley